Accueil
METAR-TAF:

METAR-TAF

Aéroports :

Aéroport d'Oxford Kidlington

Oxford, Angleterre

latitude: 51-50-13N, longitude: 1-19-12W, altitude: 82 m

Observation

Le bulletin a été fait il y a 3 heures et 27 minutes, à 21:20 UTC
Vent 6 kt de sud/sud-ouest
Température 7°C
Humidité 81%
Pression 1004 hPa
Visibilité 10 km ou plus
pas de nuages en-dessous de 1500 mètres et pas de cumulonimbus.

METAR: EGTK 252120Z 20006KT CAVOK 07/04 Q1004

Heure: 01:47 (00:47 UTC)

Prévision

Le bulletin a été fait il y a 7 heures et 49 minutes, à 16:58 UTC
Prévision valable du 25 à 18 UTC au 25 à 22 UTC
Vent 14 kt de sud
Visibilité 10 km ou plus
Nuages épars à une hauteur de 4000 ft
Probabilité 30% :
Temporairement
du 25 à 18 UTC au 25 à 20 UTC
Visibilité: 7000 m
averses de pluie

TAF: EGTK 251658Z 2518/2522 19014KT 9999 SCT040 PROB30 TEMPO 2518/2520 7000 SHRA

Observations et prévisions météorologiques de plus de 4000 aéroports (messages METAR et TAF).

Les stations disponibles sont représentées par des disques jaunes et rouges sur la carte.

Passer la souris dessus pour voir le nom de la station.

Cliquer dessus pour voir les observations et prévisions météorologiques.

Pour changer de carte: cliquez sur les boutons verts avec une croix noire pour zoomer, sur le bouton vert avec un tiret pour effectuer un zoom arrière, ou sur les flèches vertes pour les cartes adjacentes.


METAR-TAF: